Weather History for KPMV - January, 2014

Change the Weather History Date:

Saturday, January 18, 2014

  Actual Average (KOFF) Record (KOFF)
Temperature  
Mean Temperature 30 °F -  
Max Temperature 43 °F 31 °F 57 °F (2015)
Min Temperature 18 °F 14 °F -2 °F (1997)
Degree Days  
Heating Degree Days 34    
Moisture  
Dew Point 18 °F    
Average Humidity 58    
Maximum Humidity 81    
Minimum Humidity 43    
Precipitation  
Precipitation 0.00 in - - ()
Sea Level Pressure  
Sea Level Pressure 29.84 in    
Wind  
Wind Speed 19 mph (WNW)    
Max Wind Speed 39 mph    
Max Gust Speed 54 mph    
Visibility 10 miles    
Events      
Averages and records for this station are not official NWS values.
T = Trace of Precipitation, MM = Missing Value Source: NWS Daily Summary

Daily Weather History Graph

Daily Weather History Graph

Search for Another Location

Airport or City:

Trip Planner

Search our weather history database for the weather conditions in past years. The results will help you decide how hot, cold, wet, or windy it might be!

Date:

Astronomy

Jan. 18, 2014 Rise Set
Actual Time 7:44 AM CST 5:23 PM CST
Civil Twilight 7:14 AM CST 5:53 PM CST
Nautical Twilight 6:41 AM CST 6:27 PM CST
Astronomical Twilight 6:08 AM CST 7:00 PM CST
Moon 8:08 PM CST (1/18) 8:43 AM CST (1/18)
Length of Visible Light 10h 39m
Length of Day
9h 39m
Waning Gibbous, 94% of the Moon is Illuminated
Jan 18
Waning Gibbous
Jan 23
Last Quarter
Jan 30
New
Feb 6
First Quarter
Feb 14
Full

Hourly Weather History & Observations

Time (CST) Temp. Windchill Dew Point Humidity Pressure Visibility Wind Dir Wind Speed Gust Speed Precip Events Conditions
12:15 AM 31.5 °F 20.1 °F 14.0 °F 49% 29.82 in 10.0 mi South 17.3 mph 23.0 mph N/A   Overcast
12:35 AM 32.0 °F 20.5 °F 14.5 °F 49% 29.79 in 10.0 mi South 18.4 mph - N/A   Overcast
12:55 AM 32.0 °F 20.5 °F 14.9 °F 49% 29.77 in 10.0 mi South 18.4 mph 21.9 mph N/A   Overcast
1:15 AM 32.0 °F 20.1 °F 14.9 °F 49% 29.74 in 10.0 mi South 19.6 mph 24.2 mph N/A   Mostly Cloudy
1:35 AM 32.2 °F 20.7 °F 14.9 °F 49% 29.73 in 10.0 mi South 18.4 mph - N/A   Clear
1:55 AM 32.9 °F 21.3 °F 14.9 °F 48% 29.72 in 10.0 mi South 19.6 mph 25.3 mph N/A   Scattered Clouds
2:15 AM 33.3 °F 22.5 °F 14.7 °F 47% 29.70 in 10.0 mi South 17.3 mph 24.2 mph N/A   Mostly Cloudy
2:35 AM 33.8 °F 23.2 °F 14.7 °F 46% 29.71 in 10.0 mi SW 17.3 mph 25.3 mph N/A   Scattered Clouds
2:55 AM 34.7 °F 24.3 °F 14.9 °F 44% 29.70 in 10.0 mi SW 17.3 mph - N/A   Mostly Cloudy
3:15 AM 35.1 °F 25.2 °F 15.6 °F 45% 29.69 in 10.0 mi SW 16.1 mph - N/A   Overcast
3:35 AM 36.0 °F 27.5 °F 16.0 °F 44% 29.68 in 10.0 mi SW 12.7 mph - N/A   Overcast
3:55 AM 37.4 °F 29.8 °F 16.5 °F 43% 29.67 in 10.0 mi WSW 11.5 mph 17.3 mph N/A   Overcast
4:15 AM 38.3 °F 30.5 °F 17.6 °F 43% 29.66 in 10.0 mi West 12.7 mph 17.3 mph N/A   Overcast
4:35 AM 39.2 °F 31.2 °F 18.5 °F 43% 29.66 in 10.0 mi West 13.8 mph - N/A   Overcast
4:55 AM 39.0 °F 31.0 °F 18.3 °F 43% 29.65 in 10.0 mi West 13.8 mph - N/A   Overcast
5:15 AM 39.6 °F 30.6 °F 19.6 °F 45% 29.64 in 10.0 mi West 17.3 mph 23.0 mph N/A   Overcast
5:35 AM 41.0 °F 32.2 °F 20.8 °F 45% 29.65 in 10.0 mi WNW 18.4 mph 25.3 mph N/A   Overcast
5:55 AM 41.4 °F 32.4 °F 21.6 °F 45% 29.65 in 10.0 mi WNW 19.6 mph 25.3 mph N/A   Overcast
6:15 AM 41.9 °F 33.1 °F 23.4 °F 48% 29.64 in 10.0 mi WNW 19.6 mph 31.1 mph N/A   Mostly Cloudy
6:35 AM 40.5 °F 32.1 °F 23.5 °F 51% 29.64 in 10.0 mi WNW 16.1 mph - N/A   Scattered Clouds
6:55 AM 41.0 °F 32.2 °F 24.8 °F 53% 29.65 in 10.0 mi West 18.4 mph 26.5 mph N/A   Scattered Clouds
7:15 AM 41.2 °F 33.4 °F 25.3 °F 53% 29.65 in 10.0 mi West 15.0 mph 20.7 mph N/A   Mostly Cloudy
7:35 AM 41.7 °F 33.1 °F 25.5 °F 53% 29.65 in 10.0 mi West 18.4 mph 24.2 mph N/A   Overcast
7:55 AM 41.5 °F 33.2 °F 26.1 °F 54% 29.65 in 10.0 mi WNW 17.3 mph 28.8 mph N/A   Overcast
8:15 AM 42.3 °F 32.2 °F 26.4 °F 54% 29.66 in 10.0 mi WNW 26.5 mph 36.8 mph N/A   Overcast
8:35 AM 41.0 °F 32.8 °F 28.8 °F 62% 29.66 in 10.0 mi WNW 16.1 mph 23.0 mph N/A   Light Drizzle
8:55 AM 40.3 °F 31.9 °F 30.0 °F 67% 29.67 in 10.0 mi WNW 16.1 mph 20.7 mph N/A   Overcast
9:15 AM 41.2 °F 33.0 °F 29.5 °F 63% 29.67 in 10.0 mi WNW 16.1 mph 26.5 mph N/A   Overcast
9:35 AM 42.3 °F 33.1 °F 28.4 °F 58% 29.68 in 10.0 mi WNW 21.9 mph 32.2 mph N/A   Overcast
9:55 AM 42.1 °F 32.3 °F 28.4 °F 58% 29.68 in 10.0 mi WNW 24.2 mph 39.1 mph N/A   Overcast
10:15 AM 43.0 °F 32.9 °F 26.8 °F 53% 29.69 in 10.0 mi WNW 27.6 mph 39.1 mph N/A   Overcast
10:35 AM 42.1 °F 31.5 °F 27.9 °F 57% 29.70 in 10.0 mi NW 28.8 mph 48.3 mph N/A   Overcast
10:55 AM 41.7 °F 30.1 °F 27.9 °F 58% 29.70 in 10.0 mi NW 34.5 mph 46.0 mph N/A   Overcast
11:15 AM 41.2 °F 29.4 °F 26.1 °F 55% 29.71 in 10.0 mi NW 34.5 mph 43.7 mph N/A   Overcast
11:35 AM 39.4 °F 26.4 °F 24.4 °F 55% 29.72 in 10.0 mi NW 38.0 mph 47.2 mph N/A   Overcast
11:55 AM 38.5 °F 25.7 °F 21.0 °F 50% 29.75 in 10.0 mi NNW 34.5 mph 54.1 mph N/A   Overcast
12:15 PM 35.8 °F 21.2 °F 20.7 °F 54% 29.76 in 10.0 mi NW 39.1 mph 50.6 mph N/A   Overcast
12:35 PM 34.9 °F 20.7 °F 20.3 °F 55% 29.77 in 10.0 mi NW 34.5 mph 49.5 mph N/A   Overcast
12:55 PM 34.7 °F 20.1 °F 18.9 °F 52% 29.77 in 10.0 mi NW 36.8 mph 48.3 mph N/A   Overcast
1:15 PM 34.3 °F 19.2 °F 19.0 °F 54% 29.79 in 10.0 mi NW 39.1 mph 47.2 mph N/A   Overcast
1:35 PM 32.2 °F 16.4 °F 17.2 °F 54% 29.81 in 10.0 mi NW 38.0 mph 43.7 mph N/A   Overcast
1:55 PM 30.7 °F 15.5 °F 16.2 °F 55% 29.84 in 10.0 mi NW 32.2 mph 41.4 mph N/A   Overcast
2:15 PM 29.7 °F 14.0 °F 15.8 °F 56% 29.86 in 10.0 mi NNW 32.2 mph 40.3 mph N/A   Overcast
2:35 PM 28.4 °F 14.4 °F 15.3 °F 58% 29.89 in 10.0 mi NNW 23.0 mph 41.4 mph N/A   Overcast
2:55 PM 28.4 °F 14.4 °F 15.1 °F 57% 29.90 in 10.0 mi NNW 23.0 mph 36.8 mph N/A   Overcast
3:15 PM 28.8 °F 12.7 °F 15.3 °F 57% 29.91 in 10.0 mi NW 32.2 mph 40.3 mph N/A   Overcast
3:35 PM 28.9 °F 13.7 °F 14.9 °F 56% 29.94 in 10.0 mi NW 28.8 mph 35.7 mph N/A   Overcast
3:55 PM 29.1 °F 15.1 °F 14.7 °F 55% 29.96 in 10.0 mi NW 24.2 mph 35.7 mph N/A   Mostly Cloudy
4:15 PM 28.9 °F 16.9 °F 14.7 °F 55% 29.98 in 10.0 mi NNW 17.3 mph 27.6 mph N/A   Scattered Clouds
4:35 PM 28.4 °F 16.6 °F 14.4 °F 56% 30.00 in 10.0 mi NNW 16.1 mph 27.6 mph N/A   Clear
4:55 PM 28.0 °F 16.5 °F 14.5 °F 57% 30.01 in 10.0 mi NNW 15.0 mph 23.0 mph N/A   Clear
5:15 PM 27.3 °F 17.1 °F 14.7 °F 59% 30.03 in 10.0 mi NNW 11.5 mph 19.6 mph N/A   Clear
5:35 PM 26.2 °F 15.2 °F 14.7 °F 62% 30.04 in 10.0 mi NNW 12.7 mph - N/A   Clear
5:55 PM 26.1 °F 13.6 °F 14.7 °F 62% 30.05 in 10.0 mi NW 16.1 mph 24.2 mph N/A   Clear
6:15 PM 24.4 °F 13.0 °F 14.2 °F 65% 30.06 in 10.0 mi NW 12.7 mph - N/A   Clear
6:35 PM 24.3 °F 12.7 °F 14.7 °F 67% 30.07 in 10.0 mi NW 12.7 mph - N/A   Clear
6:55 PM 23.9 °F 12.9 °F 14.7 °F 68% 30.07 in 10.0 mi NW 11.5 mph - N/A   Clear
7:15 PM 23.0 °F 12.4 °F 14.5 °F 70% 30.07 in 10.0 mi NW 10.4 mph - N/A   Clear
7:35 PM 22.6 °F 10.7 °F 14.7 °F 72% 30.06 in 10.0 mi NW 12.7 mph - N/A   Clear
7:55 PM 21.9 °F 11.0 °F 14.5 °F 73% 30.06 in 10.0 mi NW 10.4 mph - N/A   Clear
8:15 PM 21.0 °F 10.6 °F 14.0 °F 74% 30.07 in 10.0 mi WNW 9.2 mph - N/A   Clear
8:35 PM 20.7 °F 9.5 °F 14.4 °F 77% 30.06 in 10.0 mi WNW 10.4 mph - N/A   Clear
8:55 PM 19.4 °F 9.5 °F 13.8 °F 79% 30.07 in 10.0 mi WNW 8.1 mph - N/A   Clear
9:15 PM 19.4 °F 9.5 °F 14.0 °F 80% 30.07 in 10.0 mi WNW 8.1 mph - N/A   Clear
9:35 PM 18.3 °F 9.1 °F 13.1 °F 80% 30.06 in 10.0 mi West 6.9 mph - N/A   Clear
9:55 PM 19.0 °F 11.1 °F 14.0 °F 81% 30.08 in 10.0 mi West 5.8 mph - N/A   Clear
10:15 PM 18.7 °F 10.6 °F 13.8 °F 81% 30.07 in 10.0 mi West 5.8 mph - N/A   Clear
10:35 PM 19.8 °F 10.8 °F 14.7 °F 81% 30.06 in 10.0 mi West 6.9 mph - N/A   Clear
10:55 PM 20.1 °F 13.6 °F 14.9 °F 80% 30.06 in 10.0 mi West 4.6 mph - N/A   Clear
11:15 PM 21.4 °F 16.6 °F 15.6 °F 78% 30.05 in 10.0 mi West 3.5 mph - N/A   Clear
11:35 PM 20.5 °F 12.8 °F 15.3 °F 80% 30.04 in 10.0 mi SW 5.8 mph - N/A   Clear
11:55 PM 22.1 °F 15.9 °F 16.5 °F 79% 30.02 in 10.0 mi SSW 4.6 mph - N/A   Clear